sensor_id;sensor_type;location;lat;lon;timestamp;P1;durP1;ratioP1;P2;durP2;ratioP2
17153;SDS011;8692;52.164;7.558;2023-01-29T00:00:22;22.77;;;15.57;;
17153;SDS011;8692;52.164;7.558;2023-01-29T00:02:51;18.50;;;13.27;;
17153;SDS011;8692;52.164;7.558;2023-01-29T00:05:21;20.00;;;14.23;;
17153;SDS011;8692;52.164;7.558;2023-01-29T00:07:54;24.80;;;15.70;;
17153;SDS011;8692;52.164;7.558;2023-01-29T00:10:23;22.93;;;15.90;;
17153;SDS011;8692;52.164;7.558;2023-01-29T00:12:53;19.40;;;13.43;;
17153;SDS011;8692;52.164;7.558;2023-01-29T00:15:21;20.43;;;14.60;;
17153;SDS011;8692;52.164;7.558;2023-01-29T00:17:49;20.90;;;13.63;;
17153;SDS011;8692;52.164;7.558;2023-01-29T00:20:18;21.43;;;14.80;;
17153;SDS011;8692;52.164;7.558;2023-01-29T00:22:46;20.63;;;13.57;;
17153;SDS011;8692;52.164;7.558;2023-01-29T00:25:17;20.67;;;14.03;;
17153;SDS011;8692;52.164;7.558;2023-01-29T00:27:45;19.93;;;14.73;;
17153;SDS011;8692;52.164;7.558;2023-01-29T00:30:15;20.50;;;14.77;;
17153;SDS011;8692;52.164;7.558;2023-01-29T00:32:45;20.80;;;13.87;;
17153;SDS011;8692;52.164;7.558;2023-01-29T00:35:16;21.67;;;14.43;;
17153;SDS011;8692;52.164;7.558;2023-01-29T00:37:46;22.57;;;16.50;;
17153;SDS011;8692;52.164;7.558;2023-01-29T00:40:14;22.30;;;14.27;;
17153;SDS011;8692;52.164;7.558;2023-01-29T00:42:44;21.37;;;14.73;;
17153;SDS011;8692;52.164;7.558;2023-01-29T00:45:35;21.60;;;14.07;;
17153;SDS011;8692;52.164;7.558;2023-01-29T00:48:04;23.43;;;14.73;;
17153;SDS011;8692;52.164;7.558;2023-01-29T00:50:33;20.87;;;14.73;;
17153;SDS011;8692;52.164;7.558;2023-01-29T00:53:01;20.67;;;14.00;;
17153;SDS011;8692;52.164;7.558;2023-01-29T00:55:29;20.33;;;14.43;;
17153;SDS011;8692;52.164;7.558;2023-01-29T00:58:00;20.80;;;14.33;;
17153;SDS011;8692;52.164;7.558;2023-01-29T01:00:28;21.93;;;14.33;;
17153;SDS011;8692;52.164;7.558;2023-01-29T01:02:58;22.57;;;14.80;;
17153;SDS011;8692;52.164;7.558;2023-01-29T01:05:31;20.17;;;14.17;;
17153;SDS011;8692;52.164;7.558;2023-01-29T01:07:59;19.40;;;12.97;;
17153;SDS011;8692;52.164;7.558;2023-01-29T01:10:30;19.77;;;14.00;;
17153;SDS011;8692;52.164;7.558;2023-01-29T01:12:59;21.30;;;13.33;;
17153;SDS011;8692;52.164;7.558;2023-01-29T01:15:31;22.03;;;14.20;;
17153;SDS011;8692;52.164;7.558;2023-01-29T01:18:05;22.03;;;15.13;;
17153;SDS011;8692;52.164;7.558;2023-01-29T01:20:36;21.27;;;13.33;;
17153;SDS011;8692;52.164;7.558;2023-01-29T01:23:05;20.93;;;14.07;;
17153;SDS011;8692;52.164;7.558;2023-01-29T01:25:33;20.17;;;13.47;;
17153;SDS011;8692;52.164;7.558;2023-01-29T01:28:01;19.70;;;13.17;;
17153;SDS011;8692;52.164;7.558;2023-01-29T01:30:32;19.63;;;13.93;;
17153;SDS011;8692;52.164;7.558;2023-01-29T01:33:03;17.83;;;12.67;;
17153;SDS011;8692;52.164;7.558;2023-01-29T01:35:32;19.83;;;13.43;;
17153;SDS011;8692;52.164;7.558;2023-01-29T01:38:00;17.73;;;12.87;;
17153;SDS011;8692;52.164;7.558;2023-01-29T01:40:30;21.10;;;13.53;;
17153;SDS011;8692;52.164;7.558;2023-01-29T01:42:59;22.23;;;14.53;;
17153;SDS011;8692;52.164;7.558;2023-01-29T01:45:30;19.63;;;14.23;;
17153;SDS011;8692;52.164;7.558;2023-01-29T01:48:00;17.27;;;12.67;;
17153;SDS011;8692;52.164;7.558;2023-01-29T01:50:34;19.40;;;13.80;;
17153;SDS011;8692;52.164;7.558;2023-01-29T01:53:06;17.77;;;12.40;;
17153;SDS011;8692;52.164;7.558;2023-01-29T01:55:39;19.33;;;13.97;;
17153;SDS011;8692;52.164;7.558;2023-01-29T01:58:14;19.73;;;12.63;;
17153;SDS011;8692;52.164;7.558;2023-01-29T02:00:47;19.43;;;12.87;;
17153;SDS011;8692;52.164;7.558;2023-01-29T02:03:16;20.17;;;13.93;;
17153;SDS011;8692;52.164;7.558;2023-01-29T02:06:05;18.40;;;13.13;;
17153;SDS011;8692;52.164;7.558;2023-01-29T02:08:54;20.33;;;13.60;;
17153;SDS011;8692;52.164;7.558;2023-01-29T02:11:44;17.47;;;12.33;;
17153;SDS011;8692;52.164;7.558;2023-01-29T02:14:13;22.90;;;13.03;;
17153;SDS011;8692;52.164;7.558;2023-01-29T02:16:42;19.67;;;13.67;;
17153;SDS011;8692;52.164;7.558;2023-01-29T02:19:12;18.77;;;13.67;;
17153;SDS011;8692;52.164;7.558;2023-01-29T02:21:56;21.20;;;13.67;;
17153;SDS011;8692;52.164;7.558;2023-01-29T02:25:01;18.90;;;12.87;;
17153;SDS011;8692;52.164;7.558;2023-01-29T02:31:11;19.70;;;13.67;;
17153;SDS011;8692;52.164;7.558;2023-01-29T02:33:48;19.73;;;12.93;;
17153;SDS011;8692;52.164;7.558;2023-01-29T02:36:26;18.37;;;12.43;;
17153;SDS011;8692;52.164;7.558;2023-01-29T02:39:06;19.33;;;12.57;;
17153;SDS011;8692;52.164;7.558;2023-01-29T02:41:45;18.17;;;12.17;;
17153;SDS011;8692;52.164;7.558;2023-01-29T02:44:19;18.23;;;13.17;;
17153;SDS011;8692;52.164;7.558;2023-01-29T02:47:00;22.07;;;14.57;;
17153;SDS011;8692;52.164;7.558;2023-01-29T02:49:34;18.50;;;12.67;;
17153;SDS011;8692;52.164;7.558;2023-01-29T02:52:06;18.50;;;13.43;;
17153;SDS011;8692;52.164;7.558;2023-01-29T02:54:40;19.97;;;13.10;;
17153;SDS011;8692;52.164;7.558;2023-01-29T02:57:16;19.83;;;13.70;;
17153;SDS011;8692;52.164;7.558;2023-01-29T02:59:51;17.47;;;12.40;;
17153;SDS011;8692;52.164;7.558;2023-01-29T03:02:25;20.20;;;13.50;;
17153;SDS011;8692;52.164;7.558;2023-01-29T03:05:02;19.40;;;13.43;;
17153;SDS011;8692;52.164;7.558;2023-01-29T03:07:37;21.63;;;13.63;;
17153;SDS011;8692;52.164;7.558;2023-01-29T03:10:23;21.10;;;13.37;;
17153;SDS011;8692;52.164;7.558;2023-01-29T03:12:58;19.33;;;13.40;;
17153;SDS011;8692;52.164;7.558;2023-01-29T03:15:33;22.70;;;13.77;;
17153;SDS011;8692;52.164;7.558;2023-01-29T03:18:24;21.23;;;13.57;;
17153;SDS011;8692;52.164;7.558;2023-01-29T03:20:59;21.13;;;14.43;;
17153;SDS011;8692;52.164;7.558;2023-01-29T03:23:54;21.37;;;14.47;;
17153;SDS011;8692;52.164;7.558;2023-01-29T03:26:41;21.10;;;14.90;;
17153;SDS011;8692;52.164;7.558;2023-01-29T03:29:33;25.10;;;14.90;;
17153;SDS011;8692;52.164;7.558;2023-01-29T03:32:26;21.23;;;12.60;;
17153;SDS011;8692;52.164;7.558;2023-01-29T03:34:59;20.80;;;14.97;;
17153;SDS011;8692;52.164;7.558;2023-01-29T03:37:34;21.70;;;13.20;;
17153;SDS011;8692;52.164;7.558;2023-01-29T03:40:07;20.57;;;13.90;;
17153;SDS011;8692;52.164;7.558;2023-01-29T03:42:43;21.43;;;14.13;;
17153;SDS011;8692;52.164;7.558;2023-01-29T03:45:20;24.27;;;14.53;;
17153;SDS011;8692;52.164;7.558;2023-01-29T03:47:56;21.73;;;14.17;;
17153;SDS011;8692;52.164;7.558;2023-01-29T03:50:35;23.40;;;15.20;;
17153;SDS011;8692;52.164;7.558;2023-01-29T03:53:12;20.17;;;14.30;;
17153;SDS011;8692;52.164;7.558;2023-01-29T03:55:49;23.03;;;14.73;;
17153;SDS011;8692;52.164;7.558;2023-01-29T03:58:28;21.97;;;14.27;;
17153;SDS011;8692;52.164;7.558;2023-01-29T04:01:05;21.43;;;14.63;;
17153;SDS011;8692;52.164;7.558;2023-01-29T04:03:45;23.97;;;15.20;;
17153;SDS011;8692;52.164;7.558;2023-01-29T04:06:19;22.93;;;14.93;;
17153;SDS011;8692;52.164;7.558;2023-01-29T04:09:06;21.53;;;13.83;;
17153;SDS011;8692;52.164;7.558;2023-01-29T04:11:42;23.33;;;14.57;;
17153;SDS011;8692;52.164;7.558;2023-01-29T04:14:13;22.80;;;13.40;;
17153;SDS011;8692;52.164;7.558;2023-01-29T04:16:46;22.57;;;15.00;;
17153;SDS011;8692;52.164;7.558;2023-01-29T04:19:36;21.27;;;14.00;;
17153;SDS011;8692;52.164;7.558;2023-01-29T04:22:11;22.33;;;14.33;;
17153;SDS011;8692;52.164;7.558;2023-01-29T04:24:44;22.60;;;14.37;;
17153;SDS011;8692;52.164;7.558;2023-01-29T04:27:18;25.83;;;15.77;;
17153;SDS011;8692;52.164;7.558;2023-01-29T04:30:01;22.73;;;14.10;;
17153;SDS011;8692;52.164;7.558;2023-01-29T04:32:40;23.40;;;14.97;;
17153;SDS011;8692;52.164;7.558;2023-01-29T04:35:23;21.23;;;13.97;;
17153;SDS011;8692;52.164;7.558;2023-01-29T04:38:03;21.73;;;14.07;;
17153;SDS011;8692;52.164;7.558;2023-01-29T04:40:41;21.50;;;14.57;;
17153;SDS011;8692;52.164;7.558;2023-01-29T04:43:20;22.47;;;14.33;;
17153;SDS011;8692;52.164;7.558;2023-01-29T04:46:02;23.27;;;14.83;;
17153;SDS011;8692;52.164;7.558;2023-01-29T04:48:42;22.30;;;14.70;;
17153;SDS011;8692;52.164;7.558;2023-01-29T04:51:23;23.97;;;14.53;;
17153;SDS011;8692;52.164;7.558;2023-01-29T04:53:58;21.80;;;15.10;;
17153;SDS011;8692;52.164;7.558;2023-01-29T04:56:34;24.37;;;15.13;;
17153;SDS011;8692;52.164;7.558;2023-01-29T04:59:07;23.13;;;14.20;;
17153;SDS011;8692;52.164;7.558;2023-01-29T05:01:42;22.07;;;14.90;;
17153;SDS011;8692;52.164;7.558;2023-01-29T05:04:11;22.53;;;15.27;;
17153;SDS011;8692;52.164;7.558;2023-01-29T05:06:42;24.43;;;14.30;;
17153;SDS011;8692;52.164;7.558;2023-01-29T05:09:16;21.87;;;14.50;;
17153;SDS011;8692;52.164;7.558;2023-01-29T05:11:46;24.70;;;15.70;;
17153;SDS011;8692;52.164;7.558;2023-01-29T05:14:16;23.13;;;14.50;;
17153;SDS011;8692;52.164;7.558;2023-01-29T05:16:49;23.57;;;16.00;;
17153;SDS011;8692;52.164;7.558;2023-01-29T05:19:20;24.67;;;16.10;;
17153;SDS011;8692;52.164;7.558;2023-01-29T05:21:48;23.77;;;15.67;;
17153;SDS011;8692;52.164;7.558;2023-01-29T05:24:19;22.23;;;14.73;;
17153;SDS011;8692;52.164;7.558;2023-01-29T05:26:51;22.47;;;15.47;;
17153;SDS011;8692;52.164;7.558;2023-01-29T05:29:38;21.73;;;14.87;;
17153;SDS011;8692;52.164;7.558;2023-01-29T05:32:11;22.23;;;15.00;;
17153;SDS011;8692;52.164;7.558;2023-01-29T05:34:40;24.50;;;15.10;;
17153;SDS011;8692;52.164;7.558;2023-01-29T05:37:11;22.20;;;14.40;;
17153;SDS011;8692;52.164;7.558;2023-01-29T05:39:40;23.87;;;15.80;;
17153;SDS011;8692;52.164;7.558;2023-01-29T05:42:11;24.90;;;14.57;;
17153;SDS011;8692;52.164;7.558;2023-01-29T05:44:39;24.10;;;15.37;;
17153;SDS011;8692;52.164;7.558;2023-01-29T05:47:07;24.20;;;15.40;;
17153;SDS011;8692;52.164;7.558;2023-01-29T05:49:37;24.50;;;16.73;;
17153;SDS011;8692;52.164;7.558;2023-01-29T05:52:05;24.47;;;15.30;;
17153;SDS011;8692;52.164;7.558;2023-01-29T05:54:35;26.07;;;14.97;;
17153;SDS011;8692;52.164;7.558;2023-01-29T05:57:07;23.47;;;14.30;;
17153;SDS011;8692;52.164;7.558;2023-01-29T05:59:35;22.13;;;14.83;;
17153;SDS011;8692;52.164;7.558;2023-01-29T06:02:03;23.90;;;14.50;;
17153;SDS011;8692;52.164;7.558;2023-01-29T06:04:31;25.73;;;15.87;;
17153;SDS011;8692;52.164;7.558;2023-01-29T06:06:59;21.77;;;15.43;;
17153;SDS011;8692;52.164;7.558;2023-01-29T06:09:31;22.30;;;15.30;;
17153;SDS011;8692;52.164;7.558;2023-01-29T06:11:59;22.60;;;14.67;;
17153;SDS011;8692;52.164;7.558;2023-01-29T06:14:28;22.20;;;14.53;;
17153;SDS011;8692;52.164;7.558;2023-01-29T06:16:56;24.03;;;16.33;;
17153;SDS011;8692;52.164;7.558;2023-01-29T06:19:24;23.90;;;14.93;;
17153;SDS011;8692;52.164;7.558;2023-01-29T06:21:53;23.23;;;14.83;;
17153;SDS011;8692;52.164;7.558;2023-01-29T06:24:21;22.30;;;14.23;;
17153;SDS011;8692;52.164;7.558;2023-01-29T06:26:52;23.83;;;14.63;;
17153;SDS011;8692;52.164;7.558;2023-01-29T06:29:20;23.63;;;15.47;;
17153;SDS011;8692;52.164;7.558;2023-01-29T06:31:49;24.87;;;16.00;;
17153;SDS011;8692;52.164;7.558;2023-01-29T06:34:18;22.70;;;15.70;;
17153;SDS011;8692;52.164;7.558;2023-01-29T06:36:49;23.97;;;15.57;;
17153;SDS011;8692;52.164;7.558;2023-01-29T06:39:17;23.33;;;14.23;;
17153;SDS011;8692;52.164;7.558;2023-01-29T06:41:45;22.43;;;14.97;;
17153;SDS011;8692;52.164;7.558;2023-01-29T06:44:15;21.33;;;13.97;;
17153;SDS011;8692;52.164;7.558;2023-01-29T06:46:46;21.70;;;13.90;;
17153;SDS011;8692;52.164;7.558;2023-01-29T06:49:16;23.77;;;15.80;;
17153;SDS011;8692;52.164;7.558;2023-01-29T06:51:44;22.90;;;14.87;;
17153;SDS011;8692;52.164;7.558;2023-01-29T06:54:12;24.73;;;15.20;;
17153;SDS011;8692;52.164;7.558;2023-01-29T06:56:40;23.50;;;14.57;;
17153;SDS011;8692;52.164;7.558;2023-01-29T06:59:09;23.27;;;14.40;;
17153;SDS011;8692;52.164;7.558;2023-01-29T07:01:37;23.17;;;15.20;;
17153;SDS011;8692;52.164;7.558;2023-01-29T07:04:07;22.87;;;14.63;;
17153;SDS011;8692;52.164;7.558;2023-01-29T07:06:37;23.20;;;15.17;;
17153;SDS011;8692;52.164;7.558;2023-01-29T07:09:05;20.87;;;13.67;;
17153;SDS011;8692;52.164;7.558;2023-01-29T07:11:33;22.63;;;14.33;;
17153;SDS011;8692;52.164;7.558;2023-01-29T07:14:03;23.77;;;15.27;;
17153;SDS011;8692;52.164;7.558;2023-01-29T07:16:31;22.47;;;15.50;;
17153;SDS011;8692;52.164;7.558;2023-01-29T07:19:00;22.13;;;15.10;;
17153;SDS011;8692;52.164;7.558;2023-01-29T07:21:28;20.73;;;13.97;;
17153;SDS011;8692;52.164;7.558;2023-01-29T07:23:58;23.77;;;15.07;;
17153;SDS011;8692;52.164;7.558;2023-01-29T07:26:28;23.63;;;14.97;;
17153;SDS011;8692;52.164;7.558;2023-01-29T07:28:56;21.23;;;14.03;;
17153;SDS011;8692;52.164;7.558;2023-01-29T07:31:24;23.73;;;14.77;;
17153;SDS011;8692;52.164;7.558;2023-01-29T07:33:53;22.60;;;14.07;;
17153;SDS011;8692;52.164;7.558;2023-01-29T07:36:23;24.43;;;14.73;;
17153;SDS011;8692;52.164;7.558;2023-01-29T07:38:52;23.90;;;14.57;;
17153;SDS011;8692;52.164;7.558;2023-01-29T07:41:24;22.30;;;14.20;;
17153;SDS011;8692;52.164;7.558;2023-01-29T07:43:58;22.50;;;14.37;;
17153;SDS011;8692;52.164;7.558;2023-01-29T07:46:26;21.53;;;13.70;;
17153;SDS011;8692;52.164;7.558;2023-01-29T07:48:54;24.53;;;14.33;;
17153;SDS011;8692;52.164;7.558;2023-01-29T07:51:22;24.40;;;14.87;;
17153;SDS011;8692;52.164;7.558;2023-01-29T07:53:50;21.80;;;14.10;;
17153;SDS011;8692;52.164;7.558;2023-01-29T07:56:18;23.47;;;16.30;;
17153;SDS011;8692;52.164;7.558;2023-01-29T07:58:48;24.27;;;15.30;;
17153;SDS011;8692;52.164;7.558;2023-01-29T08:01:18;24.20;;;14.93;;
17153;SDS011;8692;52.164;7.558;2023-01-29T08:03:50;23.57;;;15.20;;
17153;SDS011;8692;52.164;7.558;2023-01-29T08:06:20;21.27;;;13.97;;
17153;SDS011;8692;52.164;7.558;2023-01-29T08:08:48;25.47;;;14.47;;
17153;SDS011;8692;52.164;7.558;2023-01-29T08:11:19;23.77;;;14.57;;
17153;SDS011;8692;52.164;7.558;2023-01-29T08:13:51;20.83;;;14.50;;
17153;SDS011;8692;52.164;7.558;2023-01-29T08:16:19;22.40;;;14.83;;
17153;SDS011;8692;52.164;7.558;2023-01-29T08:18:48;24.43;;;15.20;;
17153;SDS011;8692;52.164;7.558;2023-01-29T08:21:16;24.20;;;15.03;;
17153;SDS011;8692;52.164;7.558;2023-01-29T08:23:46;25.03;;;15.87;;
17153;SDS011;8692;52.164;7.558;2023-01-29T08:26:17;26.30;;;14.87;;
17153;SDS011;8692;52.164;7.558;2023-01-29T08:28:47;25.33;;;15.37;;
17153;SDS011;8692;52.164;7.558;2023-01-29T08:31:17;26.80;;;16.13;;
17153;SDS011;8692;52.164;7.558;2023-01-29T08:33:48;24.35;;;14.90;;
17153;SDS011;8692;52.164;7.558;2023-01-29T08:36:17;23.67;;;14.77;;
17153;SDS011;8692;52.164;7.558;2023-01-29T08:38:45;24.50;;;15.13;;
17153;SDS011;8692;52.164;7.558;2023-01-29T08:41:13;23.73;;;15.17;;
17153;SDS011;8692;52.164;7.558;2023-01-29T08:43:44;25.33;;;16.37;;
17153;SDS011;8692;52.164;7.558;2023-01-29T08:46:12;26.13;;;17.33;;
17153;SDS011;8692;52.164;7.558;2023-01-29T08:48:42;25.45;;;22.10;;
17153;SDS011;8692;52.164;7.558;2023-01-29T08:51:10;26.43;;;16.97;;
17153;SDS011;8692;52.164;7.558;2023-01-29T08:53:39;23.63;;;15.83;;
17153;SDS011;8692;52.164;7.558;2023-01-29T08:56:07;24.43;;;15.23;;
17153;SDS011;8692;52.164;7.558;2023-01-29T08:58:35;22.50;;;15.17;;
17153;SDS011;8692;52.164;7.558;2023-01-29T09:01:06;21.67;;;13.63;;
17153;SDS011;8692;52.164;7.558;2023-01-29T09:03:36;25.70;;;14.73;;
17153;SDS011;8692;52.164;7.558;2023-01-29T09:06:09;20.57;;;13.47;;
17153;SDS011;8692;52.164;7.558;2023-01-29T09:08:41;22.73;;;14.23;;
17153;SDS011;8692;52.164;7.558;2023-01-29T09:11:11;20.30;;;13.93;;
17153;SDS011;8692;52.164;7.558;2023-01-29T09:13:39;22.60;;;13.97;;
17153;SDS011;8692;52.164;7.558;2023-01-29T09:16:10;21.07;;;14.03;;
17153;SDS011;8692;52.164;7.558;2023-01-29T09:18:41;23.00;;;14.40;;
17153;SDS011;8692;52.164;7.558;2023-01-29T09:21:11;21.73;;;13.47;;
17153;SDS011;8692;52.164;7.558;2023-01-29T09:23:39;21.67;;;13.70;;
17153;SDS011;8692;52.164;7.558;2023-01-29T09:26:09;21.93;;;13.83;;
17153;SDS011;8692;52.164;7.558;2023-01-29T09:28:37;19.83;;;13.17;;
17153;SDS011;8692;52.164;7.558;2023-01-29T09:31:06;20.40;;;13.37;;
17153;SDS011;8692;52.164;7.558;2023-01-29T09:33:37;25.17;;;13.83;;
17153;SDS011;8692;52.164;7.558;2023-01-29T09:36:06;21.10;;;14.00;;
17153;SDS011;8692;52.164;7.558;2023-01-29T09:38:36;23.53;;;14.20;;
17153;SDS011;8692;52.164;7.558;2023-01-29T09:41:07;23.67;;;14.70;;
17153;SDS011;8692;52.164;7.558;2023-01-29T09:43:46;23.70;;;20.77;;
17153;SDS011;8692;52.164;7.558;2023-01-29T09:46:19;19.27;;;14.23;;
17153;SDS011;8692;52.164;7.558;2023-01-29T09:48:55;23.57;;;15.33;;
17153;SDS011;8692;52.164;7.558;2023-01-29T09:51:32;20.37;;;13.53;;
17153;SDS011;8692;52.164;7.558;2023-01-29T09:54:12;25.90;;;16.23;;
17153;SDS011;8692;52.164;7.558;2023-01-29T09:56:47;26.33;;;17.20;;
17153;SDS011;8692;52.164;7.558;2023-01-29T09:59:21;32.43;;;20.80;;
17153;SDS011;8692;52.164;7.558;2023-01-29T10:01:54;22.77;;;15.53;;
17153;SDS011;8692;52.164;7.558;2023-01-29T10:04:36;23.93;;;14.87;;
17153;SDS011;8692;52.164;7.558;2023-01-29T10:07:25;27.67;;;15.40;;
17153;SDS011;8692;52.164;7.558;2023-01-29T10:12:59;21.70;;;13.20;;
17153;SDS011;8692;52.164;7.558;2023-01-29T10:15:39;24.40;;;15.37;;
17153;SDS011;8692;52.164;7.558;2023-01-29T10:18:23;25.17;;;14.83;;
17153;SDS011;8692;52.164;7.558;2023-01-29T10:21:07;22.60;;;15.40;;
17153;SDS011;8692;52.164;7.558;2023-01-29T10:23:56;23.67;;;15.17;;
17153;SDS011;8692;52.164;7.558;2023-01-29T10:26:35;24.07;;;15.97;;
17153;SDS011;8692;52.164;7.558;2023-01-29T10:29:06;23.33;;;14.93;;
17153;SDS011;8692;52.164;7.558;2023-01-29T10:31:41;23.63;;;15.40;;
17153;SDS011;8692;52.164;7.558;2023-01-29T10:34:12;24.53;;;15.83;;
17153;SDS011;8692;52.164;7.558;2023-01-29T10:36:46;21.43;;;14.53;;
17153;SDS011;8692;52.164;7.558;2023-01-29T10:39:15;25.83;;;16.00;;
17153;SDS011;8692;52.164;7.558;2023-01-29T10:41:56;23.50;;;15.20;;
17153;SDS011;8692;52.164;7.558;2023-01-29T10:44:40;26.57;;;15.23;;
17153;SDS011;8692;52.164;7.558;2023-01-29T10:47:29;25.70;;;16.87;;
17153;SDS011;8692;52.164;7.558;2023-01-29T10:50:27;29.73;;;16.37;;
17153;SDS011;8692;52.164;7.558;2023-01-29T10:53:13;34.10;;;22.37;;
17153;SDS011;8692;52.164;7.558;2023-01-29T10:55:54;24.07;;;16.73;;
17153;SDS011;8692;52.164;7.558;2023-01-29T10:58:49;28.83;;;16.50;;
17153;SDS011;8692;52.164;7.558;2023-01-29T11:01:22;26.70;;;17.00;;
17153;SDS011;8692;52.164;7.558;2023-01-29T11:03:54;25.10;;;17.73;;
17153;SDS011;8692;52.164;7.558;2023-01-29T11:06:26;24.00;;;15.47;;
17153;SDS011;8692;52.164;7.558;2023-01-29T11:09:01;29.67;;;15.80;;
17153;SDS011;8692;52.164;7.558;2023-01-29T11:11:35;30.50;;;19.93;;
17153;SDS011;8692;52.164;7.558;2023-01-29T11:14:11;26.27;;;17.40;;
17153;SDS011;8692;52.164;7.558;2023-01-29T11:16:43;33.43;;;23.00;;
17153;SDS011;8692;52.164;7.558;2023-01-29T11:19:14;26.60;;;17.50;;
17153;SDS011;8692;52.164;7.558;2023-01-29T11:21:49;27.87;;;18.07;;
17153;SDS011;8692;52.164;7.558;2023-01-29T11:24:19;29.43;;;20.40;;
17153;SDS011;8692;52.164;7.558;2023-01-29T11:26:48;25.60;;;17.03;;
17153;SDS011;8692;52.164;7.558;2023-01-29T11:29:37;29.43;;;17.43;;
17153;SDS011;8692;52.164;7.558;2023-01-29T11:32:10;23.40;;;15.27;;
17153;SDS011;8692;52.164;7.558;2023-01-29T11:34:59;27.80;;;19.27;;
17153;SDS011;8692;52.164;7.558;2023-01-29T11:37:33;28.47;;;18.33;;
17153;SDS011;8692;52.164;7.558;2023-01-29T11:40:28;26.07;;;16.47;;
17153;SDS011;8692;52.164;7.558;2023-01-29T11:45:59;27.30;;;16.90;;
17153;SDS011;8692;52.164;7.558;2023-01-29T11:48:33;28.80;;;17.07;;
17153;SDS011;8692;52.164;7.558;2023-01-29T11:51:07;27.03;;;17.37;;
17153;SDS011;8692;52.164;7.558;2023-01-29T11:53:39;25.93;;;17.10;;
17153;SDS011;8692;52.164;7.558;2023-01-29T11:56:15;33.57;;;18.50;;
17153;SDS011;8692;52.164;7.558;2023-01-29T11:58:49;24.00;;;16.73;;
17153;SDS011;8692;52.164;7.558;2023-01-29T12:01:29;25.07;;;16.40;;
17153;SDS011;8692;52.164;7.558;2023-01-29T12:03:59;26.27;;;17.03;;
17153;SDS011;8692;52.164;7.558;2023-01-29T12:06:31;29.20;;;17.13;;
17153;SDS011;8692;52.164;7.558;2023-01-29T12:09:02;27.30;;;17.33;;
17153;SDS011;8692;52.164;7.558;2023-01-29T12:11:37;25.97;;;15.60;;
17153;SDS011;8692;52.164;7.558;2023-01-29T12:14:26;24.13;;;16.00;;
17153;SDS011;8692;52.164;7.558;2023-01-29T12:17:14;25.30;;;15.50;;
17153;SDS011;8692;52.164;7.558;2023-01-29T12:19:47;24.90;;;16.00;;
17153;SDS011;8692;52.164;7.558;2023-01-29T12:22:25;22.27;;;14.67;;
17153;SDS011;8692;52.164;7.558;2023-01-29T12:25:02;23.87;;;15.23;;
17153;SDS011;8692;52.164;7.558;2023-01-29T12:27:35;24.33;;;14.93;;
17153;SDS011;8692;52.164;7.558;2023-01-29T12:30:14;25.27;;;16.10;;
17153;SDS011;8692;52.164;7.558;2023-01-29T12:32:52;24.07;;;15.33;;
17153;SDS011;8692;52.164;7.558;2023-01-29T12:35:23;25.00;;;15.30;;
17153;SDS011;8692;52.164;7.558;2023-01-29T12:37:57;24.10;;;15.30;;
17153;SDS011;8692;52.164;7.558;2023-01-29T12:40:31;28.93;;;16.77;;
17153;SDS011;8692;52.164;7.558;2023-01-29T12:43:02;25.07;;;16.13;;
17153;SDS011;8692;52.164;7.558;2023-01-29T12:45:42;23.70;;;15.23;;
17153;SDS011;8692;52.164;7.558;2023-01-29T12:48:19;23.23;;;15.10;;
17153;SDS011;8692;52.164;7.558;2023-01-29T12:50:54;23.00;;;15.33;;
17153;SDS011;8692;52.164;7.558;2023-01-29T12:53:26;26.37;;;16.60;;
17153;SDS011;8692;52.164;7.558;2023-01-29T12:55:58;28.37;;;16.20;;
17153;SDS011;8692;52.164;7.558;2023-01-29T12:58:33;27.70;;;16.27;;
17153;SDS011;8692;52.164;7.558;2023-01-29T13:01:07;28.37;;;17.20;;
17153;SDS011;8692;52.164;7.558;2023-01-29T13:03:45;26.20;;;15.60;;
17153;SDS011;8692;52.164;7.558;2023-01-29T13:06:20;28.57;;;17.20;;
17153;SDS011;8692;52.164;7.558;2023-01-29T13:08:54;24.97;;;16.17;;
17153;SDS011;8692;52.164;7.558;2023-01-29T13:11:28;26.03;;;16.00;;
17153;SDS011;8692;52.164;7.558;2023-01-29T13:14:05;25.43;;;16.40;;
17153;SDS011;8692;52.164;7.558;2023-01-29T13:16:40;25.27;;;16.40;;
17153;SDS011;8692;52.164;7.558;2023-01-29T13:19:19;25.70;;;17.43;;
17153;SDS011;8692;52.164;7.558;2023-01-29T13:21:52;27.53;;;16.10;;
17153;SDS011;8692;52.164;7.558;2023-01-29T13:24:22;25.40;;;16.17;;
17153;SDS011;8692;52.164;7.558;2023-01-29T13:26:52;24.50;;;15.83;;
17153;SDS011;8692;52.164;7.558;2023-01-29T13:29:21;27.33;;;16.80;;
17153;SDS011;8692;52.164;7.558;2023-01-29T13:31:51;25.60;;;17.00;;
17153;SDS011;8692;52.164;7.558;2023-01-29T13:34:25;29.53;;;16.63;;
17153;SDS011;8692;52.164;7.558;2023-01-29T13:36:57;27.83;;;16.77;;
17153;SDS011;8692;52.164;7.558;2023-01-29T13:39:28;28.03;;;17.13;;
17153;SDS011;8692;52.164;7.558;2023-01-29T13:41:59;25.73;;;15.70;;
17153;SDS011;8692;52.164;7.558;2023-01-29T13:44:32;27.70;;;16.17;;
17153;SDS011;8692;52.164;7.558;2023-01-29T13:47:04;28.87;;;17.73;;
17153;SDS011;8692;52.164;7.558;2023-01-29T13:49:38;26.73;;;16.80;;
17153;SDS011;8692;52.164;7.558;2023-01-29T13:52:13;30.13;;;18.00;;
17153;SDS011;8692;52.164;7.558;2023-01-29T13:54:48;26.10;;;17.17;;
17153;SDS011;8692;52.164;7.558;2023-01-29T13:57:45;27.37;;;16.73;;
17153;SDS011;8692;52.164;7.558;2023-01-29T14:06:37;26.13;;;16.43;;
17153;SDS011;8692;52.164;7.558;2023-01-29T14:12:31;33.13;;;21.20;;
17153;SDS011;8692;52.164;7.558;2023-01-29T14:15:14;44.10;;;24.63;;
17153;SDS011;8692;52.164;7.558;2023-01-29T14:20:53;39.90;;;23.07;;
17153;SDS011;8692;52.164;7.558;2023-01-29T14:23:31;38.93;;;22.87;;
17153;SDS011;8692;52.164;7.558;2023-01-29T14:26:17;32.47;;;19.67;;
17153;SDS011;8692;52.164;7.558;2023-01-29T14:28:52;29.97;;;19.53;;
17153;SDS011;8692;52.164;7.558;2023-01-29T14:31:28;38.60;;;25.40;;
17153;SDS011;8692;52.164;7.558;2023-01-29T14:33:59;36.20;;;20.07;;
17153;SDS011;8692;52.164;7.558;2023-01-29T14:36:36;29.43;;;19.33;;
17153;SDS011;8692;52.164;7.558;2023-01-29T14:39:16;35.57;;;23.80;;
17153;SDS011;8692;52.164;7.558;2023-01-29T14:41:49;37.20;;;23.53;;
17153;SDS011;8692;52.164;7.558;2023-01-29T14:50:38;33.07;;;20.90;;
17153;SDS011;8692;52.164;7.558;2023-01-29T14:53:30;34.87;;;21.60;;
17153;SDS011;8692;52.164;7.558;2023-01-29T14:56:13;30.83;;;19.33;;
17153;SDS011;8692;52.164;7.558;2023-01-29T14:58:47;29.90;;;19.30;;
17153;SDS011;8692;52.164;7.558;2023-01-29T15:01:21;32.13;;;19.93;;
17153;SDS011;8692;52.164;7.558;2023-01-29T15:03:54;31.20;;;21.80;;
17153;SDS011;8692;52.164;7.558;2023-01-29T15:06:30;31.87;;;20.43;;
17153;SDS011;8692;52.164;7.558;2023-01-29T15:09:08;31.70;;;20.70;;
17153;SDS011;8692;52.164;7.558;2023-01-29T15:11:46;32.27;;;20.47;;
17153;SDS011;8692;52.164;7.558;2023-01-29T15:14:23;34.53;;;20.80;;
17153;SDS011;8692;52.164;7.558;2023-01-29T15:17:03;34.70;;;20.87;;
17153;SDS011;8692;52.164;7.558;2023-01-29T15:19:43;33.23;;;21.23;;
17153;SDS011;8692;52.164;7.558;2023-01-29T15:22:14;33.07;;;21.60;;
17153;SDS011;8692;52.164;7.558;2023-01-29T15:24:44;41.33;;;22.67;;
17153;SDS011;8692;52.164;7.558;2023-01-29T15:27:17;34.13;;;23.47;;
17153;SDS011;8692;52.164;7.558;2023-01-29T15:29:47;32.07;;;22.07;;
17153;SDS011;8692;52.164;7.558;2023-01-29T15:32:23;32.70;;;21.87;;
17153;SDS011;8692;52.164;7.558;2023-01-29T15:34:56;34.50;;;22.00;;
17153;SDS011;8692;52.164;7.558;2023-01-29T15:37:29;36.80;;;22.67;;
17153;SDS011;8692;52.164;7.558;2023-01-29T15:40:01;36.10;;;22.20;;